Current Weather

Laguna De Los Patos Intl

Laguna De Los Patos Intl, Uruguay (SUCA)

Report from: Thursday, July 18, 2024 11:00 AM -03
Current time: Thursday, July 18, 2024 11:24 AM -03

Nearby weather – Weather history – Daily summaries
Weather forecast

Temperature16.0°C (60.8°F)
Dew point11.0°C (51.8°F)
Winds 10 kts (5.1 m/s, 11.5 mph) North-Northeast (20°)
Clouds Sky clear
Altimeter30.12 in.Hg (1020 mB)
Relative humidity72 %
Density altitude75 ft. (23 m)
Remarks Ceiling and visibility OK
Flight conditions Visual Meteorological Conditions
Raw dataSUCA 181400Z 02010KT CAVOK 16/11 Q1020
An error has occurred. This application may no longer respond until reloaded. Reload 🗙